Time;durP1;ratioP1;P1;durP2;ratioP2;P2;SDS_P1;SDS_P2;PMS_P1;PMS_P2;Temp;Humidity;BMP_temperature;BMP_pressure;BME280_temperature;BME280_humidity;BME280_pressure;Samples;Min_cycle;Max_cycle;Signal;HPM_P1;HPM_P2
2022/07/13 00:02:22;;;;;;;17.27;7.20;;;;;;;22.85;57.57;101943.53;5347542;27;20034;-74
2022/07/13 00:04:54;;;;;;;13.00;6.10;;;;;;;22.89;57.34;101931.81;5348461;27;20426;-74
2022/07/13 00:07:25;;;;;;;14.40;6.85;;;;;;;22.75;58.16;101929.78;5348216;27;20347;-74
2022/07/13 00:09:56;;;;;;;12.37;6.57;;;;;;;22.83;57.44;101934.75;5351674;27;20462;-73
2022/07/13 00:12:28;;;;;;;12.80;6.13;;;;;;;22.80;57.61;101918.06;5350780;27;20038;-72
2022/07/13 00:14:59;;;;;;;10.60;5.53;;;;;;;22.77;57.37;101908.47;5349746;27;20039;-73
2022/07/13 00:17:31;;;;;;;9.23;6.33;;;;;;;22.72;57.70;101899.84;5348588;27;20065;-74
2022/07/13 00:20:03;;;;;;;11.60;6.20;;;;;;;22.72;57.62;101900.69;5347966;27;20389;-73
2022/07/13 00:22:34;;;;;;;9.68;5.65;;;;;;;22.69;56.92;101898.16;5348203;27;20408;-74
2022/07/13 00:25:06;;;;;;;9.30;5.13;;;;;;;22.72;56.30;101900.69;5348004;27;20027;-74
2022/07/13 00:27:38;;;;;;;;;;;;;;;22.74;56.02;101895.31;5348167;27;20059;-74
2022/07/13 00:30:10;;;;;;;9.63;5.13;;;;;;;22.72;55.51;101899.84;5347687;27;19919;-74
2022/07/13 00:32:41;;;;;;;6.35;5.10;;;;;;;22.71;55.36;101890.13;5347977;27;20030;-74
2022/07/13 00:35:12;;;;;;;6.27;5.20;;;;;;;22.66;55.18;101892.16;5347320;27;20027;-75
2022/07/13 00:37:44;;;;;;;8.50;4.38;;;;;;;22.68;55.18;101882.28;5347673;27;20023;-74
2022/07/13 00:40:15;;;;;;;8.20;5.33;;;;;;;22.65;54.95;101888.59;5347643;27;20473;-75
2022/07/13 00:42:47;;;;;;;9.23;5.47;;;;;;;22.60;55.16;101866.69;5347661;27;20084;-74
2022/07/13 00:45:18;;;;;;;7.90;5.07;;;;;;;22.66;54.50;101870.88;5346670;27;20027;-75
2022/07/13 00:47:50;;;;;;;7.60;5.63;;;;;;;22.64;54.86;101865.63;5347517;27;20038;-74
2022/07/13 00:50:21;;;;;;;7.63;5.03;;;;;;;22.60;54.91;101856.06;5347605;27;20034;-74
2022/07/13 00:52:53;;;;;;;9.00;5.53;;;;;;;22.61;54.98;101863.13;5347460;27;20058;-75
2022/07/13 00:55:25;;;;;;;7.07;4.83;;;;;;;22.61;54.29;101867.59;5346506;27;20322;-75
2022/07/13 00:57:58;;;;;;;5.57;4.40;;;;;;;22.54;55.11;101854.56;5354290;27;20056;-74
2022/07/13 01:00:29;;;;;;;6.13;4.63;;;;;;;22.58;54.76;101856.13;5348729;27;20031;-75
2022/07/13 01:03:01;;;;;;;9.00;5.30;;;;;;;22.53;54.89;101855.50;5347532;27;20470;-74
2022/07/13 01:05:33;;;;;;;10.18;5.10;;;;;;;22.53;54.81;101852.84;5345194;27;20031;-75
2022/07/13 01:08:05;;;;;;;10.45;5.95;;;;;;;22.56;54.48;101843.88;5346336;27;20046;-75
2022/07/13 01:10:36;;;;;;;9.60;6.95;;;;;;;22.62;54.06;101845.38;5347070;27;20509;-74
2022/07/13 01:13:11;;;;;;;12.90;5.85;;;;;;;22.62;53.81;101853.34;5347070;27;20450;-74
2022/07/13 01:15:43;;;;;;;9.02;6.60;;;;;;;22.62;53.22;101850.69;5347118;27;20031;-74
2022/07/13 01:18:14;;;;;;;;;;;;;;;22.64;53.73;101856.81;5347110;27;20031;-73
2022/07/13 01:20:46;;;;;;;10.70;6.03;;;;;;;22.64;53.24;101848.84;5345438;27;20440;-74
2022/07/13 01:23:18;;;;;;;10.93;4.80;;;;;;;22.63;52.80;101849.75;5346825;27;20034;-74
2022/07/13 01:25:50;;;;;;;;;;;;;;;22.64;53.10;101844.38;5347318;27;20031;-76
2022/07/13 01:28:25;;;;;;;11.93;5.00;;;;;;;22.63;52.22;101842.66;5346527;27;19919;-73
2022/07/13 01:30:56;;;;;;;6.65;4.90;;;;;;;22.60;53.12;101837.47;5344892;27;20031;-73
2022/07/13 01:33:28;;;;;;;6.40;4.27;;;;;;;22.52;52.57;101842.28;5346776;27;20534;-74
2022/07/13 01:35:59;;;;;;;8.20;4.90;;;;;;;22.51;52.45;101840.56;5346113;27;20062;-75
2022/07/13 01:38:31;;;;;;;7.97;4.40;;;;;;;22.54;52.03;101841.28;5347288;27;20819;-74
2022/07/13 01:41:04;;;;;;;8.20;4.30;;;;;;;22.52;52.75;101843.16;5355143;27;20023;-73
2022/07/13 01:43:35;;;;;;;6.75;4.40;;;;;;;22.46;52.82;101839.91;5347299;27;20031;-74
2022/07/13 01:46:07;;;;;;;6.33;4.30;;;;;;;22.46;52.38;101835.47;5345575;27;20551;-74
2022/07/13 01:48:38;;;;;;;7.77;4.03;;;;;;;22.45;52.73;101838.19;5346502;27;20691;-73
2022/07/13 01:51:09;;;;;;;11.37;4.50;;;;;;;22.43;52.46;101835.63;5345210;28;20031;-74
2022/07/13 01:53:41;;;;;;;9.97;3.97;;;;;;;22.46;52.57;101832.81;5346330;27;20109;-73
2022/07/13 01:56:12;;;;;;;4.93;3.92;;;;;;;22.40;53.02;101836.59;5346872;28;20035;-74
2022/07/13 01:58:44;;;;;;;7.75;4.00;;;;;;;22.43;52.73;101840.03;5345013;28;20035;-74
2022/07/13 02:01:15;;;;;;;10.33;4.47;;;;;;;22.39;53.01;101845.53;5345587;28;20059;-73
2022/07/13 02:03:47;;;;;;;6.13;3.27;;;;;;;22.35;52.91;101827.13;5350672;28;20603;-73
2022/07/13 02:06:19;;;;;;;5.30;3.30;;;;;;;22.30;52.86;101832.66;5356619;27;20057;-74
2022/07/13 02:08:50;;;;;;;5.38;3.63;;;;;;;22.31;52.90;101834.34;5347478;27;20464;-76
2022/07/13 02:11:21;;;;;;;4.63;3.10;;;;;;;22.30;52.38;101819.38;5346851;27;20119;-75
2022/07/13 02:13:53;;;;;;;4.60;3.37;;;;;;;22.31;52.93;101821.06;5345257;28;20031;-75
2022/07/13 02:16:24;;;;;;;8.87;3.70;;;;;;;22.25;53.60;101812.50;5346106;27;20390;-74
2022/07/13 02:18:56;;;;;;;7.37;3.43;;;;;;;22.23;53.16;101815.22;5346255;27;20031;-74
2022/07/13 02:21:27;;;;;;;7.10;4.23;;;;;;;22.18;53.10;101815.44;5346173;27;20023;-75
2022/07/13 02:23:58;;;;;;;9.67;4.00;;;;;;;22.25;52.73;101802.75;5344957;28;20363;-76
2022/07/13 02:26:30;;;;;;;7.30;3.90;;;;;;;22.30;52.21;101805.22;5346256;27;20055;-76
2022/07/13 02:29:01;;;;;;;7.50;3.70;;;;;;;22.26;52.57;101801.81;5345852;27;20058;-76
2022/07/13 02:31:34;;;;;;;10.03;3.43;;;;;;;22.25;52.73;101805.41;5346625;27;20050;-76
2022/07/13 02:34:06;;;;;;;10.23;4.47;;;;;;;22.24;52.87;101798.38;5346098;27;20028;-76
2022/07/13 02:36:37;;;;;;;4.90;3.50;;;;;;;22.30;52.50;101799.91;5345586;27;20035;-76
2022/07/13 02:39:08;;;;;;;7.00;3.87;;;;;;;22.29;52.78;101790.19;5346011;27;20087;-77
2022/07/13 02:41:40;;;;;;;6.07;3.70;;;;;;;22.27;52.97;101792.06;5345197;27;20035;-74
2022/07/13 02:44:11;;;;;;;6.47;3.60;;;;;;;22.28;53.04;101788.47;5350159;27;20477;-74
2022/07/13 02:46:43;;;;;;;5.43;3.23;;;;;;;22.24;53.11;101798.38;5349947;27;20023;-74
2022/07/13 02:49:14;;;;;;;5.07;3.33;;;;;;;22.24;53.33;101785.09;5349824;27;20031;-75
2022/07/13 02:51:46;;;;;;;7.90;3.90;;;;;;;22.25;52.89;101767.34;5349705;27;20031;-75
2022/07/13 02:54:17;;;;;;;7.17;4.10;;;;;;;22.23;53.13;101767.41;5349718;27;20354;-75
2022/07/13 02:56:48;;;;;;;5.00;3.40;;;;;;;22.23;53.08;101783.34;5349811;27;20031;-75
2022/07/13 02:59:20;;;;;;;6.43;3.33;;;;;;;22.19;53.64;101787.94;5349517;27;20115;-75
2022/07/13 03:01:51;;;;;;;4.77;3.03;;;;;;;22.18;53.80;101788.88;5349646;27;20434;-75
2022/07/13 03:04:23;;;;;;;8.27;4.10;;;;;;;22.16;54.06;101780.13;5352399;27;20019;-75
2022/07/13 03:06:54;;;;;;;5.77;4.10;;;;;;;22.13;53.82;101784.72;5361066;27;20035;-76
2022/07/13 03:09:26;;;;;;;6.97;3.53;;;;;;;22.07;54.50;101790.31;5350156;27;20042;-74
2022/07/13 03:11:57;;;;;;;8.90;3.70;;;;;;;22.08;54.17;101787.56;5349505;27;20435;-74
2022/07/13 03:14:28;;;;;;;5.27;3.53;;;;;;;22.07;54.69;101788.50;5349326;27;20079;-73
2022/07/13 03:17:00;;;;;;;7.03;3.47;;;;;;;22.07;54.81;101793.81;5349273;27;20031;-75
2022/07/13 03:19:31;;;;;;;4.80;3.50;;;;;;;22.05;54.39;101790.38;5349455;27;20046;-75
2022/07/13 03:22:04;;;;;;;5.33;3.40;;;;;;;22.04;55.06;101789.53;5347917;27;20042;-75
2022/07/13 03:24:35;;;;;;;6.93;3.58;;;;;;;22.04;54.63;101784.22;5349277;27;20026;-74
2022/07/13 03:27:07;;;;;;;6.97;3.53;;;;;;;22.01;54.88;101780.84;5347578;27;20057;-75
2022/07/13 03:29:38;;;;;;;7.00;4.13;;;;;;;22.01;54.86;101775.53;5348697;27;20031;-75
2022/07/13 03:32:09;;;;;;;15.57;3.73;;;;;;;22.01;54.95;101772.88;5348831;27;20366;-75
2022/07/13 03:34:41;;;;;;;4.93;3.77;;;;;;;22.01;54.70;101781.69;5348862;27;20382;-74
2022/07/13 03:37:12;;;;;;;7.97;4.13;;;;;;;22.00;54.68;101779.09;5348384;27;20027;-75
2022/07/13 03:39:44;;;;;;;5.13;3.20;;;;;;;21.99;55.22;101777.38;5348752;27;20276;-74
2022/07/13 03:42:15;;;;;;;4.47;3.30;;;;;;;21.96;54.96;101772.19;5348848;27;20031;-75
2022/07/13 03:44:46;;;;;;;5.93;3.63;;;;;;;21.97;55.00;101776.59;5347852;27;20039;-75
2022/07/13 03:47:18;;;;;;;6.37;3.57;;;;;;;22.01;54.57;101772.88;5348078;27;20433;-74
2022/07/13 03:49:49;;;;;;;8.93;3.70;;;;;;;22.01;54.47;101772.88;5355585;27;20042;-74
2022/07/13 03:52:21;;;;;;;7.37;3.43;;;;;;;21.98;54.75;101767.69;5353011;27;20027;-72
2022/07/13 03:54:52;;;;;;;7.45;3.72;;;;;;;21.97;54.54;101777.44;5353314;27;20130;-74
2022/07/13 03:57:24;;;;;;;6.30;3.50;;;;;;;21.98;54.40;101770.34;5355572;27;20031;-73
2022/07/13 03:59:55;;;;;;;5.07;3.70;;;;;;;21.99;54.71;101766.75;5347796;27;20400;-74
2022/07/13 04:02:26;;;;;;;8.40;4.00;;;;;;;21.96;54.96;101769.53;5347213;27;20045;-74
2022/07/13 04:04:58;;;;;;;6.10;3.70;;;;;;;21.98;54.82;101771.22;5348662;27;20035;-74
2022/07/13 04:07:29;;;;;;;9.27;3.92;;;;;;;21.95;54.76;101781.97;5348047;27;20028;-74
2022/07/13 04:10:01;;;;;;;5.83;3.63;;;;;;;21.95;54.67;101768.69;5347012;27;20462;-74
2022/07/13 04:12:32;;;;;;;8.03;3.83;;;;;;;21.98;54.74;101770.34;5347047;27;20062;-74
2022/07/13 04:15:05;;;;;;;6.27;3.70;;;;;;;22.00;55.21;101773.78;5346777;27;20220;-76
2022/07/13 04:17:37;;;;;;;5.68;3.25;;;;;;;21.96;55.08;101761.56;5346779;27;20035;-74
2022/07/13 04:20:10;;;;;;;5.97;4.07;;;;;;;21.95;55.12;101759.88;5348565;27;20027;-75
2022/07/13 04:22:42;;;;;;;5.88;3.55;;;;;;;21.91;54.86;101756.50;5348091;27;20031;-73
2022/07/13 04:25:13;;;;;;;5.57;4.23;;;;;;;21.92;55.34;101760.00;5348332;27;20034;-74
2022/07/13 04:27:45;;;;;;;7.73;4.70;;;;;;;21.92;55.04;101762.66;5347624;27;20129;-73
2022/07/13 04:30:16;;;;;;;6.20;3.13;;;;;;;21.91;55.38;101748.53;5347832;27;20023;-74
2022/07/13 04:32:47;;;;;;;6.23;4.00;;;;;;;21.96;54.54;101753.63;5348034;27;20068;-74
2022/07/13 04:35:19;;;;;;;6.07;3.43;;;;;;;22.00;54.39;101750.75;5347372;27;20027;-73
2022/07/13 04:37:50;;;;;;;5.88;3.22;;;;;;;22.06;54.61;101752.28;5347602;27;20083;-74
2022/07/13 04:40:22;;;;;;;5.73;3.40;;;;;;;22.10;55.13;101751.19;5346628;27;20518;-74
2022/07/13 04:42:53;;;;;;;6.30;3.13;;;;;;;22.11;54.67;101747.63;5349567;27;20041;-73
2022/07/13 04:45:25;;;;;;;8.17;4.10;;;;;;;22.15;54.89;101750.97;5348274;27;20034;-73
2022/07/13 04:47:56;;;;;;;7.27;3.40;;;;;;;22.13;54.67;101745.75;5347505;27;20031;-73
2022/07/13 04:50:27;;;;;;;10.87;4.07;;;;;;;22.12;54.68;101752.00;5347282;27;20035;-74
2022/07/13 04:52:59;;;;;;;11.20;3.63;;;;;;;22.09;54.93;101753.91;5346960;27;20046;-73
2022/07/13 04:55:30;;;;;;;6.47;3.90;;;;;;;22.05;55.10;101758.50;5347248;27;20031;-74
2022/07/13 04:58:02;;;;;;;8.83;3.70;;;;;;;22.07;54.59;101751.31;5347107;27;20439;-73
2022/07/13 05:00:34;;;;;;;6.72;3.80;;;;;;;22.08;55.05;101760.19;5347126;27;20078;-74
2022/07/13 05:03:06;;;;;;;6.32;4.00;;;;;;;22.14;54.99;101750.13;5347011;27;20094;-74
2022/07/13 05:05:37;;;;;;;8.37;4.30;;;;;;;22.14;55.05;101754.59;5344567;27;20118;-73
2022/07/13 05:08:09;;;;;;;7.53;3.53;;;;;;;22.17;54.68;101752.66;5347436;27;20095;-73
2022/07/13 05:10:40;;;;;;;4.57;3.17;;;;;;;22.25;54.33;101740.78;5349254;27;20031;-74
2022/07/13 05:13:11;;;;;;;6.70;3.90;;;;;;;22.30;54.27;101749.44;5351646;27;20031;-75
2022/07/13 05:15:43;;;;;;;8.00;3.30;;;;;;;22.35;53.87;101748.28;5350888;27;20039;-74
2022/07/13 05:18:14;;;;;;;9.37;3.40;;;;;;;22.50;53.40;101754.66;5351140;27;20474;-73
2022/07/13 05:20:45;;;;;;;5.07;3.13;;;;;;;22.53;53.12;101745.72;5350643;27;20027;-74
2022/07/13 05:23:17;;;;;;;5.57;3.50;;;;;;;22.67;52.80;101747.69;5348858;27;20023;-73
2022/07/13 05:25:48;;;;;;;8.20;4.50;;;;;;;22.66;52.90;101740.66;5347491;27;20038;-74
2022/07/13 05:28:20;;;;;;;7.73;3.20;;;;;;;22.63;52.46;101743.47;5347008;27;20716;-73
2022/07/13 05:30:52;;;;;;;9.48;3.75;;;;;;;22.50;52.84;101741.38;5345456;27;20063;-73
2022/07/13 05:33:23;;;;;;;10.20;4.13;;;;;;;22.55;52.27;101742.03;5346764;27;20553;-74
2022/07/13 05:35:55;;;;;;;4.90;3.37;;;;;;;22.52;52.82;101743.97;5345967;27;20273;-73
2022/07/13 05:38:27;;;;;;;8.38;3.58;;;;;;;22.50;52.82;101752.00;5346607;27;20273;-73
2022/07/13 05:40:58;;;;;;;5.00;3.27;;;;;;;22.54;53.09;101753.59;5347087;27;20027;-74
2022/07/13 05:43:29;;;;;;;5.83;3.10;;;;;;;22.55;52.72;101749.13;5346725;27;20261;-73
2022/07/13 05:46:01;;;;;;;5.87;3.50;;;;;;;22.62;52.36;101760.34;5346816;27;20023;-73
2022/07/13 05:48:34;;;;;;;7.83;3.50;;;;;;;22.55;52.41;101759.78;5346758;27;20030;-72
2022/07/13 05:51:06;;;;;;;9.27;3.70;;;;;;;22.60;52.43;101763.06;5346353;27;20482;-74
2022/07/13 05:53:37;;;;;;;8.52;3.90;;;;;;;22.69;51.91;101770.59;5346364;27;20110;-73
2022/07/13 05:56:09;;;;;;;10.13;3.28;;;;;;;22.81;51.75;101765.63;5347389;27;20369;-73
2022/07/13 05:58:40;;;;;;;8.30;3.30;;;;;;;22.86;51.85;101767.13;5347659;27;20035;-74
2022/07/13 06:01:12;;;;;;;8.47;3.40;;;;;;;22.98;51.25;101763.00;5346808;27;20027;-74
2022/07/13 06:03:43;;;;;;;7.03;2.90;;;;;;;22.94;51.41;101759.66;5346485;27;20115;-73
2022/07/13 06:06:15;;;;;;;6.67;3.47;;;;;;;23.03;51.41;101768.09;5346525;27;20378;-73
2022/07/13 06:08:46;;;;;;;8.40;3.03;;;;;;;23.04;51.01;101772.47;5346509;27;20394;-74
2022/07/13 06:11:17;;;;;;;8.50;3.30;;;;;;;23.19;51.49;101765.56;5346262;27;20036;-73
2022/07/13 06:13:49;;;;;;;5.63;3.53;;;;;;;23.16;50.94;101763.91;5346195;27;20123;-73
2022/07/13 06:16:20;;;;;;;5.10;3.33;;;;;;;23.26;50.84;101764.31;5346088;27;20031;-73
2022/07/13 06:18:51;;;;;;;11.67;3.43;;;;;;;23.21;50.78;101761.03;5350297;27;20076;-73
2022/07/13 06:21:23;;;;;;;10.93;3.57;;;;;;;23.22;50.52;101770.72;5350644;27;20027;-74
2022/07/13 06:23:54;;;;;;;6.63;3.53;;;;;;;23.27;51.05;101774.00;5349028;27;20031;-73
2022/07/13 06:26:26;;;;;;;7.23;3.43;;;;;;;23.44;50.45;101775.78;5350360;27;20035;-73
2022/07/13 06:28:57;;;;;;;11.73;3.53;;;;;;;23.46;50.01;101772.13;5350279;27;20055;-74
2022/07/13 06:31:28;;;;;;;10.20;3.97;;;;;;;23.57;51.58;101768.03;5350274;27;20443;-74
2022/07/13 06:34:00;;;;;;;4.13;3.17;;;;;;;23.83;50.87;101772.06;5350258;27;20037;-74
2022/07/13 06:36:31;;;;;;;4.83;3.40;;;;;;;24.00;49.31;101773.78;5349733;27;20023;-73
2022/07/13 06:39:03;;;;;;;6.50;3.20;;;;;;;23.84;50.51;101766.66;5350566;27;20039;-76
2022/07/13 06:41:34;;;;;;;7.30;3.63;;;;;;;23.94;50.15;101769.69;5351312;27;20059;-73
2022/07/13 06:44:06;;;;;;;7.87;3.03;;;;;;;23.88;50.43;101761.13;5350020;27;20369;-73
2022/07/13 06:46:38;;;;;;;18.53;4.47;;;;;;;23.89;49.44;101761.06;5350031;27;20492;-74
2022/07/13 06:49:09;;;;;;;8.23;3.47;;;;;;;24.01;50.13;101765.72;5349906;27;20395;-73
2022/07/13 06:51:41;;;;;;;11.85;3.47;;;;;;;24.03;50.34;101761.16;5349507;27;20034;-74
2022/07/13 06:54:12;;;;;;;10.30;4.97;;;;;;;24.19;50.33;101753.19;5349507;27;20031;-74
2022/07/13 06:56:43;;;;;;;7.47;3.50;;;;;;;24.50;49.96;101759.50;5349593;27;20037;-74
2022/07/13 06:59:15;;;;;;;10.83;3.80;;;;;;;24.47;49.25;101758.81;5348318;27;20054;-73
2022/07/13 07:01:46;;;;;;;7.88;3.63;;;;;;;24.41;49.43;101757.38;5349388;27;20023;-72
2022/07/13 07:04:18;;;;;;;7.37;3.97;;;;;;;24.46;49.50;101760.63;5349102;27;20046;-73
2022/07/13 07:06:49;;;;;;;8.30;4.00;;;;;;;24.38;50.28;101757.53;5347462;27;20031;-74
2022/07/13 07:09:20;;;;;;;6.10;3.47;;;;;;;24.33;50.67;101762.25;5349710;27;20115;-73
2022/07/13 07:11:52;;;;;;;8.00;4.33;;;;;;;24.27;50.71;101774.09;5349271;27;20095;-73
2022/07/13 07:14:23;;;;;;;13.03;4.43;;;;;;;24.13;51.31;101774.00;5349117;27;20023;-73
2022/07/13 07:16:56;;;;;;;8.25;4.00;;;;;;;24.03;51.47;101771.81;5350289;27;20035;-73
2022/07/13 07:19:27;;;;;;;;;;;;;;;24.28;51.23;101773.16;5349679;27;20062;-73
2022/07/13 07:21:58;;;;;;;6.47;4.20;;;;;;;24.16;51.93;101772.00;5349544;27;19958;-73
2022/07/13 07:24:31;;;;;;;12.33;4.07;;;;;;;24.57;50.76;101770.72;5350360;27;20027;-73
2022/07/13 07:27:05;;;;;;;8.70;4.00;;;;;;;24.85;50.64;101772.66;5348555;27;20311;-73
2022/07/13 07:29:37;;;;;;;10.90;4.10;;;;;;;25.03;51.39;101775.22;5347840;27;20382;-74
2022/07/13 07:32:08;;;;;;;12.68;4.50;;;;;;;25.15;50.12;101761.16;5347595;27;20041;-73
2022/07/13 07:34:40;;;;;;;8.10;4.82;;;;;;;25.13;51.14;101768.38;5349075;27;20028;-73
2022/07/13 07:37:12;;;;;;;8.95;5.30;;;;;;;25.32;49.61;101760.19;5347744;27;20027;-72
2022/07/13 07:39:43;;;;;;;12.00;5.05;;;;;;;25.09;50.19;101765.03;5351001;27;20031;-72
2022/07/13 07:42:14;;;;;;;9.73;5.00;;;;;;;25.07;51.08;101760.75;5348716;27;20055;-73
2022/07/13 07:44:46;;;;;;;15.40;5.70;;;;;;;24.83;51.58;101761.22;5348734;27;20505;-72
2022/07/13 07:47:17;;;;;;;11.37;6.70;;;;;;;24.93;51.21;101764.22;5347340;27;20035;-73
2022/07/13 07:49:49;;;;;;;8.93;5.15;;;;;;;25.01;51.23;101764.63;5348676;27;20124;-73
2022/07/13 07:52:21;;;;;;;10.57;5.00;;;;;;;24.98;51.43;101763.97;5348385;27;20061;-73
2022/07/13 07:54:52;;;;;;;12.25;5.45;;;;;;;25.02;51.36;101761.03;5348286;27;20027;-73
2022/07/13 07:57:24;;;;;;;8.03;5.13;;;;;;;25.30;51.20;101760.28;5347486;27;20499;-74
2022/07/13 07:59:55;;;;;;;10.70;5.45;;;;;;;25.15;51.46;101763.84;5348328;27;20114;-72
2022/07/13 08:02:27;;;;;;;9.10;4.63;;;;;;;25.34;52.90;101755.63;5347868;27;20031;-73
2022/07/13 08:04:59;;;;;;;10.73;5.55;;;;;;;25.39;52.09;101756.22;5348226;27;20130;-73
2022/07/13 08:07:30;;;;;;;21.88;5.75;;;;;;;25.71;51.19;101741.84;5347774;27;20031;-73
2022/07/13 08:10:02;;;;;;;11.02;5.82;;;;;;;25.64;51.24;101755.56;5347992;27;20038;-73
2022/07/13 08:12:33;;;;;;;7.82;5.45;;;;;;;26.02;51.16;101757.72;5346653;27;20031;-73
2022/07/13 08:15:07;;;;;;;14.27;6.20;;;;;;;25.84;50.82;101750.81;5347831;27;20063;-73
2022/07/13 08:17:39;;;;;;;10.35;6.10;;;;;;;25.55;51.94;101768.63;5347748;27;20071;-72
2022/07/13 08:20:11;;;;;;;10.00;5.47;;;;;;;25.67;52.14;101758.03;5346530;27;20031;-73
2022/07/13 08:22:43;;;;;;;19.08;6.03;;;;;;;26.05;52.12;101758.47;5347763;27;20035;-73
2022/07/13 08:25:15;;;;;;;16.53;6.37;;;;;;;26.04;50.96;101762.97;5346338;27;20088;-72
2022/07/13 08:27:47;;;;;;;11.25;5.18;;;;;;;26.10;51.24;101770.59;5347232;27;20368;-73
2022/07/13 08:30:19;;;;;;;7.38;5.43;;;;;;;26.12;51.60;101776.69;5347497;27;20023;-73
2022/07/13 08:32:51;;;;;;;11.32;5.63;;;;;;;26.50;50.49;101775.19;5347645;27;20054;-73
2022/07/13 08:38:34;;;;;;;11.13;5.82;;;;;;;26.31;51.49;101776.41;5347744;27;20482;-73
2022/07/13 08:41:06;;;;;;;10.65;5.10;;;;;;;26.36;51.45;101776.09;5347356;27;20037;-73
2022/07/13 08:43:37;;;;;;;9.57;4.88;;;;;;;26.59;51.45;101768.41;5347589;27;20027;-72
2022/07/13 08:46:09;;;;;;;7.85;5.00;;;;;;;26.45;50.43;101769.28;5347338;27;20053;-73
2022/07/13 08:48:46;;;;;;;7.70;4.60;;;;;;;26.41;50.42;101770.47;5347756;27;20474;-71
2022/07/13 08:51:20;;;;;;;8.48;4.68;;;;;;;26.62;50.84;101776.25;5347245;27;20115;-73
2022/07/13 08:53:54;;;;;;;8.77;5.10;;;;;;;26.81;49.71;101774.09;5347080;27;20072;-73
2022/07/13 08:56:27;;;;;;;6.47;4.78;;;;;;;26.91;49.31;101771.66;5346928;27;20026;-73
2022/07/13 08:59:01;;;;;;;9.68;4.50;;;;;;;26.69;48.06;101772.22;5346891;27;20485;-73
2022/07/13 09:01:33;;;;;;;7.88;4.68;;;;;;;26.73;49.09;101776.41;5347191;27;20034;-73
2022/07/13 09:04:11;;;;;;;9.05;4.68;;;;;;;26.87;49.55;101775.50;5347020;27;20031;-73
2022/07/13 09:06:49;;;;;;;7.85;3.75;;;;;;;26.85;48.36;101785.44;5345272;27;20042;-73
2022/07/13 09:09:33;;;;;;;8.32;4.25;;;;;;;26.64;49.07;101787.69;5346705;27;20031;-74
2022/07/13 09:12:14;;;;;;;6.97;3.95;;;;;;;27.02;49.34;101782.50;5347117;27;20038;-73
2022/07/13 09:14:54;;;;;;;9.37;3.93;;;;;;;27.09;47.52;101788.31;5346961;27;20031;-73
2022/07/13 09:17:35;;;;;;;12.52;4.68;;;;;;;27.19;48.07;101784.03;5346796;27;20023;-73
2022/07/13 09:20:15;;;;;;;10.35;4.28;;;;;;;27.47;46.91;101788.41;5346860;27;20076;-73
2022/07/13 09:22:52;;;;;;;8.13;4.55;;;;;;;27.01;48.43;101793.31;5347214;27;20087;-73
2022/07/13 09:25:35;;;;;;;8.23;4.00;;;;;;;27.01;48.63;101796.00;5346594;27;20028;-73
2022/07/13 09:28:10;;;;;;;;;;;;;;;27.37;47.45;101800.72;5346902;27;20078;-73
2022/07/13 09:30:44;;;;;;;9.48;3.65;;;;;;;27.43;47.38;101794.94;5347795;27;20374;-73
2022/07/13 09:33:32;;;;;;;12.50;4.00;;;;;;;27.39;47.30;101789.91;5346922;27;20059;-73
2022/07/13 09:36:15;;;;;;;11.05;4.97;;;;;;;27.13;47.98;101797.88;5346619;27;20107;-72
2022/07/13 09:38:53;;;;;;;7.55;3.90;;;;;;;26.92;47.91;101797.47;5346483;27;20070;-74
2022/07/13 09:41:25;;;;;;;9.02;4.07;;;;;;;26.99;48.72;101800.59;5346431;27;20030;-74
2022/07/13 09:47:03;;;;;;;7.68;3.42;;;;;;;27.18;48.19;101779.66;5346904;27;20401;-74
2022/07/13 09:49:43;;;;;;;6.68;3.50;;;;;;;27.40;45.09;101783.59;5346727;27;20031;-74
2022/07/13 09:52:19;;;;;;;6.18;3.33;;;;;;;27.59;45.49;101784.03;5344473;27;20027;-74
2022/07/13 09:54:51;;;;;;;11.15;3.17;;;;;;;27.68;42.97;101793.25;5346352;27;20066;-74
2022/07/13 09:57:24;;;;;;;4.57;2.50;;;;;;;27.21;42.81;101795.53;5346111;27;20034;-73
2022/07/13 09:59:56;;;;;;;9.20;3.55;;;;;;;27.42;42.76;101795.91;5346485;27;20476;-74
2022/07/13 10:02:31;;;;;;;;;;;;;;;28.29;43.03;101796.13;5347705;27;20043;-75
2022/07/13 10:05:03;;;;;;;8.05;3.20;;;;;;;28.06;42.35;101792.41;5347668;28;19971;-74
2022/07/13 10:07:35;;;;;;;;;;;;;;;28.67;42.73;101808.59;5346309;28;20054;-74
2022/07/13 10:10:06;;;;;;;7.03;2.97;;;;;;;28.17;42.46;101799.69;5346151;28;20102;-74
2022/07/13 10:12:38;;;;;;;;;;;;;;;28.49;42.21;101804.56;5347140;27;20050;-74
2022/07/13 10:15:12;;;;;;;9.40;3.20;;;;;;;28.37;42.82;101801.78;5347206;28;19958;-73
2022/07/13 10:17:49;;;;;;;6.20;3.03;;;;;;;28.34;41.66;101807.38;5346353;27;20035;-74
2022/07/13 10:20:24;;;;;;;7.75;2.88;;;;;;;28.20;40.40;101804.84;5346047;27;20175;-74
2022/07/13 10:22:56;;;;;;;7.28;3.00;;;;;;;28.32;40.67;101806.63;5344943;28;20529;-74
2022/07/13 10:25:41;;;;;;;;;;;;;;;28.82;40.83;101811.09;5346435;27;20028;-74
2022/07/13 10:28:12;;;;;;;11.32;4.05;;;;;;;28.26;41.82;101812.44;5346005;28;19926;-74
2022/07/13 10:30:44;;;;;;;;;;;;;;;28.74;40.45;101812.53;5345999;27;20401;-75
2022/07/13 10:33:20;;;;;;;4.40;2.63;;;;;;;27.92;40.33;101814.81;5346203;28;19915;-72
2022/07/13 10:35:57;;;;;;;4.43;2.83;;;;;;;27.67;42.10;101814.78;5345910;27;20095;-74
2022/07/13 10:38:29;;;;;;;6.47;3.20;;;;;;;27.72;42.64;101816.19;5345887;27;20122;-74
2022/07/13 10:41:27;;;;;;;;;;;;;;;28.47;41.92;101812.72;5346465;27;20517;-75
2022/07/13 10:44:31;;;;;;;5.15;2.63;;;;;;;28.38;40.50;101810.69;5344313;28;19907;-73
2022/07/13 10:47:11;;;;;;;5.18;2.70;;;;;;;28.20;40.96;101812.88;5345676;27;20427;-74
2022/07/13 10:49:46;;;;;;;4.60;2.90;;;;;;;28.05;41.59;101816.63;5345729;27;20032;-74
2022/07/13 10:52:21;;;;;;;7.75;2.95;;;;;;;28.35;40.85;101819.81;5327881;28;20385;-74
2022/07/13 10:55:11;;;;;;;9.90;2.80;;;;;;;29.84;38.63;101822.28;5345817;27;20028;-74
2022/07/13 10:57:43;;;;;;;9.38;3.20;;;;;;;29.56;38.57;101825.25;5345570;27;20031;-75
2022/07/13 11:00:22;;;;;;;5.72;2.90;;;;;;;29.97;38.17;101831.91;5345796;27;20123;-74
2022/07/13 11:02:56;;;;;;;6.07;3.15;;;;;;;29.26;37.90;101828.44;5345659;27;20088;-73
2022/07/13 11:05:35;;;;;;;6.57;2.97;;;;;;;29.07;38.87;101831.63;5348742;27;20066;-74
2022/07/13 11:08:16;;;;;;;15.13;3.42;;;;;;;28.20;40.66;101823.59;5348767;27;20548;-74
2022/07/13 11:11:11;;;;;;;7.40;2.97;;;;;;;28.12;41.02;101829.50;5349412;27;20035;-74
2022/07/13 11:13:44;;;;;;;9.82;3.53;;;;;;;27.92;46.94;101825.53;5347950;27;20023;-74
2022/07/13 11:16:46;;;;;;;12.35;3.33;;;;;;;28.24;43.82;101819.75;5349043;27;20454;-73
2022/07/13 11:19:57;;;;;;;5.53;2.87;;;;;;;28.46;43.47;101820.88;5349100;27;20102;-73
2022/07/13 11:25:42;;;;;;;4.70;2.60;;;;;;;29.57;41.00;101840.38;5349907;27;20035;-73
2022/07/13 11:28:20;;;;;;;9.50;2.90;;;;;;;31.27;38.57;101822.28;5353304;27;20039;-73
2022/07/13 11:30:56;;;;;;;11.27;3.25;;;;;;;31.75;35.08;101817.38;5353493;27;20383;-73
2022/07/13 11:33:27;;;;;;;9.35;2.72;;;;;;;32.33;34.93;101812.28;5354262;27;20057;-74
2022/07/13 11:36:00;;;;;;;6.82;2.95;;;;;;;32.23;33.02;101830.25;5351888;27;20118;-74
2022/07/13 11:38:35;;;;;;;3.42;2.47;;;;;;;31.61;33.78;101829.38;5353541;27;20041;-74
2022/07/13 11:41:17;;;;;;;4.88;3.25;;;;;;;30.07;36.60;101829.34;5349958;27;20038;-73
2022/07/13 11:43:53;;;;;;;7.93;3.10;;;;;;;29.29;37.56;101836.25;5349400;27;20067;-71
2022/07/13 11:46:28;;;;;;;7.15;2.90;;;;;;;29.06;39.25;101821.84;5349372;27;20084;-73
2022/07/13 11:49:01;;;;;;;8.10;3.03;;;;;;;28.71;39.83;101825.34;5349212;27;20035;-73
2022/07/13 11:51:33;;;;;;;5.55;2.95;;;;;;;28.53;39.99;101828.38;5349362;27;20031;-73
2022/07/13 11:54:12;;;;;;;6.57;3.65;;;;;;;27.97;41.70;101814.50;5330149;27;20080;-74
2022/07/13 11:56:51;;;;;;;12.63;2.97;;;;;;;27.89;41.10;101815.00;5348690;27;20106;-74
2022/07/13 11:59:42;;;;;;;6.78;2.78;;;;;;;29.00;40.38;101817.81;5349094;27;20058;-73
2022/07/13 12:02:14;;;;;;;6.07;3.00;;;;;;;30.01;37.97;101811.00;5346886;27;20027;-74
2022/07/13 12:04:47;;;;;;;5.85;2.63;;;;;;;29.92;37.84;101822.53;5348712;27;20478;-73